createdAt,value
2022-08-11T00:02:30.903Z,2.00
2022-08-11T00:05:03.191Z,2.10
2022-08-11T00:07:31.781Z,1.95
2022-08-11T00:10:00.869Z,2.00
2022-08-11T00:12:29.560Z,1.90
2022-08-11T00:15:00.265Z,2.55
2022-08-11T00:17:33.183Z,2.33
2022-08-11T00:20:11.711Z,2.03
2022-08-11T00:22:46.205Z,2.17
2022-08-11T00:25:16.961Z,2.10
2022-08-11T00:27:45.449Z,2.00
2022-08-11T00:30:14.652Z,1.77
2022-08-11T00:32:56.433Z,1.85
2022-08-11T00:35:55.474Z,1.90
2022-08-11T00:38:18.954Z,1.80
2022-08-11T00:40:54.234Z,1.80
2022-08-11T00:43:30.691Z,1.75
2022-08-11T00:46:15.360Z,1.80
2022-08-11T00:49:00.993Z,1.60
2022-08-11T00:52:04.184Z,1.60
2022-08-11T00:55:13.925Z,1.60
2022-08-11T00:58:41.074Z,1.63
2022-08-11T01:01:22.811Z,2.08
2022-08-11T01:04:31.838Z,1.95
2022-08-11T01:08:01.470Z,1.88
2022-08-11T01:10:53.622Z,1.60
2022-08-11T01:13:48.098Z,1.95
2022-08-11T01:16:53.862Z,1.50
2022-08-11T01:20:44.749Z,1.80
2022-08-11T01:23:19.770Z,1.60
2022-08-11T01:26:22.170Z,1.90
2022-08-11T01:29:31.445Z,1.80
2022-08-11T01:32:47.878Z,1.70
2022-08-11T01:35:37.415Z,1.80
2022-08-11T01:38:47.618Z,1.60
2022-08-11T01:42:09.280Z,1.80
2022-08-11T01:45:07.339Z,2.00
2022-08-11T01:47:54.157Z,1.83
2022-08-11T01:50:38.552Z,1.80
2022-08-11T01:53:19.353Z,1.73
2022-08-11T01:55:58.209Z,1.98
2022-08-11T01:58:43.406Z,1.65
2022-08-11T02:01:29.582Z,1.83
2022-08-11T02:04:08.039Z,1.80
2022-08-11T02:06:58.673Z,1.58
2022-08-11T02:09:53.231Z,2.08
2022-08-11T02:12:37.954Z,2.08
2022-08-11T02:15:29.046Z,1.48
2022-08-11T02:18:06.665Z,1.80
2022-08-11T02:21:00.370Z,1.88
2022-08-11T02:24:06.599Z,1.95
2022-08-11T02:26:41.298Z,1.65
2022-08-11T02:29:17.210Z,1.73
2022-08-11T02:32:28.623Z,1.75
2022-08-11T02:35:06.860Z,2.17
2022-08-11T02:37:45.366Z,1.80
2022-08-11T02:40:25.454Z,1.60
2022-08-11T02:43:10.323Z,1.85
2022-08-11T02:45:54.231Z,2.22
2022-08-11T02:48:52.701Z,1.80
2022-08-11T02:51:28.950Z,1.88
2022-08-11T02:54:07.722Z,2.00
2022-08-11T02:56:52.463Z,2.05
2022-08-11T02:59:51.739Z,1.83
2022-08-11T03:02:42.607Z,2.00
2022-08-11T03:05:23.701Z,1.95
2022-08-11T03:08:06.893Z,2.25
2022-08-11T03:10:43.546Z,2.03
2022-08-11T03:13:38.008Z,2.08
2022-08-11T03:16:34.511Z,2.00
2022-08-11T03:19:13.240Z,1.98
2022-08-11T03:22:01.856Z,2.17
2022-08-11T03:24:51.435Z,2.45
2022-08-11T03:27:44.043Z,1.90
2022-08-11T03:30:17.468Z,2.30
2022-08-11T03:33:19.326Z,2.17
2022-08-11T03:36:02.377Z,2.25
2022-08-11T03:38:39.678Z,2.00
2022-08-11T03:42:03.542Z,2.13
2022-08-11T03:44:57.126Z,2.50
2022-08-11T03:47:55.426Z,2.13
2022-08-11T03:50:54.456Z,2.28
2022-08-11T03:53:46.537Z,2.25
2022-08-11T03:56:42.764Z,2.17
2022-08-11T03:59:33.320Z,2.20
2022-08-11T04:02:28.709Z,2.20
2022-08-11T04:05:40.185Z,2.03
2022-08-11T04:08:33.831Z,2.30
2022-08-11T04:11:32.198Z,2.78
2022-08-11T04:14:42.714Z,2.33
2022-08-11T04:17:37.277Z,1.88
2022-08-11T04:20:50.982Z,1.98
2022-08-11T04:24:35.483Z,2.25
2022-08-11T04:26:55.150Z,1.98
2022-08-11T04:30:04.015Z,2.10
2022-08-11T04:32:43.639Z,2.20
2022-08-11T04:35:26.552Z,2.30
2022-08-11T04:38:31.043Z,2.00
2022-08-11T04:41:27.068Z,2.17
2022-08-11T04:44:29.863Z,2.08
2022-08-11T04:48:01.731Z,2.47
2022-08-11T04:51:04.066Z,2.30
2022-08-11T04:54:17.279Z,1.80
2022-08-11T04:57:05.393Z,2.05
2022-08-11T05:00:18.958Z,2.00
2022-08-11T05:03:24.969Z,2.20
2022-08-11T05:06:40.956Z,1.95
2022-08-11T05:09:32.256Z,2.40
2022-08-11T05:12:31.182Z,2.10
2022-08-11T05:15:18.080Z,1.92
2022-08-11T05:18:12.521Z,2.40
2022-08-11T05:21:05.672Z,2.25
2022-08-11T05:23:54.430Z,2.33
2022-08-11T05:26:47.640Z,1.77
2022-08-11T05:29:46.248Z,2.50
2022-08-11T05:32:36.132Z,2.30
2022-08-11T05:35:08.129Z,2.25
2022-08-11T05:37:57.282Z,1.90
2022-08-11T05:40:43.586Z,1.98
2022-08-11T05:43:39.722Z,1.70
2022-08-11T05:46:46.794Z,1.88
2022-08-11T05:49:32.818Z,1.85
2022-08-11T05:52:19.793Z,1.98
2022-08-11T05:55:10.941Z,1.90
2022-08-11T05:57:51.700Z,1.70
2022-08-11T06:00:24.327Z,2.10
2022-08-11T06:02:55.508Z,2.17
2022-08-11T06:05:25.162Z,1.98
2022-08-11T06:07:57.240Z,1.88
2022-08-11T06:10:33.584Z,1.95
2022-08-11T06:13:02.350Z,2.10
2022-08-11T06:15:35.656Z,1.90
2022-08-11T06:18:04.790Z,2.38
2022-08-11T06:20:37.600Z,1.95
2022-08-11T06:23:08.973Z,2.20
2022-08-11T06:25:38.457Z,2.15
2022-08-11T06:28:08.653Z,2.00
2022-08-11T06:30:42.778Z,2.00
2022-08-11T06:33:13.686Z,2.00
2022-08-11T06:35:53.038Z,2.17
2022-08-11T06:38:38.069Z,2.50
2022-08-11T06:41:32.054Z,2.45
2022-08-11T06:44:13.269Z,1.67
2022-08-11T06:46:44.534Z,1.92
2022-08-11T06:49:29.092Z,2.28
2022-08-11T06:52:01.806Z,1.90
2022-08-11T06:54:35.245Z,2.08
2022-08-11T06:57:31.914Z,2.08
2022-08-11T07:00:19.444Z,2.10
2022-08-11T07:02:56.347Z,2.20
2022-08-11T07:05:30.086Z,1.83
2022-08-11T07:08:51.254Z,2.00
2022-08-11T07:11:58.890Z,1.75
2022-08-11T07:14:46.885Z,1.80
2022-08-11T07:17:18.523Z,1.85
2022-08-11T07:20:13.009Z,1.80
2022-08-11T07:23:05.877Z,2.00
2022-08-11T07:25:55.261Z,1.65
2022-08-11T07:28:43.805Z,1.30
2022-08-11T07:31:15.525Z,2.05
2022-08-11T07:34:08.108Z,1.90
2022-08-11T07:36:40.848Z,1.42
2022-08-11T07:39:18.253Z,1.50
2022-08-11T07:41:48.518Z,1.50
2022-08-11T07:44:17.561Z,1.63
2022-08-11T07:47:06.713Z,1.83
2022-08-11T07:49:58.742Z,1.40
2022-08-11T07:52:32.661Z,1.60
2022-08-11T07:55:03.399Z,1.65
2022-08-11T07:58:15.783Z,1.85
2022-08-11T08:00:59.345Z,1.65
2022-08-11T08:03:54.444Z,1.65
2022-08-11T08:06:41.591Z,1.83
2022-08-11T08:09:29.988Z,1.50
2022-08-11T08:12:18.473Z,1.70
2022-08-11T08:15:04.185Z,1.40
2022-08-11T08:18:20.709Z,1.52
2022-08-11T08:20:46.000Z,1.42
2022-08-11T08:23:14.866Z,1.73
2022-08-11T08:25:47.026Z,1.42
2022-08-11T08:28:18.745Z,1.33
2022-08-11T08:30:50.086Z,1.40
2022-08-11T08:33:21.863Z,1.33
2022-08-11T08:35:54.532Z,1.20
2022-08-11T08:38:24.448Z,1.40
2022-08-11T08:40:56.522Z,1.45
2022-08-11T08:43:26.041Z,1.42
2022-08-11T08:45:57.384Z,1.65
2022-08-11T08:48:27.462Z,1.35
2022-08-11T08:51:20.060Z,1.60
2022-08-11T08:53:56.470Z,1.33
2022-08-11T08:56:34.722Z,1.73
2022-08-11T08:59:04.079Z,1.35
2022-08-11T09:01:40.163Z,1.40
2022-08-11T09:04:12.223Z,1.45
2022-08-11T09:06:44.247Z,1.70
2022-08-11T09:09:18.781Z,1.20
2022-08-11T09:11:53.709Z,1.40
2022-08-11T09:14:24.364Z,1.38
2022-08-11T09:16:53.868Z,1.33
2022-08-11T09:19:23.146Z,1.52
2022-08-11T09:22:08.977Z,1.40
2022-08-11T09:24:56.372Z,1.40
2022-08-11T09:27:27.666Z,1.30
2022-08-11T09:29:56.567Z,1.48
2022-08-11T09:32:24.870Z,1.30
2022-08-11T09:34:54.147Z,1.40
2022-08-11T09:37:54.923Z,1.40
2022-08-11T09:40:33.780Z,1.45
2022-08-11T09:43:25.815Z,1.50
2022-08-11T09:45:55.366Z,1.60
2022-08-11T09:48:25.942Z,1.50
2022-08-11T09:50:56.356Z,1.30
2022-08-11T09:53:35.873Z,1.17
2022-08-11T09:56:29.027Z,1.30
2022-08-11T09:58:59.216Z,1.52
2022-08-11T10:01:33.231Z,1.58
2022-08-11T10:04:18.502Z,1.30
2022-08-11T10:07:06.808Z,1.30
2022-08-11T10:09:39.982Z,1.30
2022-08-11T10:12:11.608Z,1.40
2022-08-11T10:15:02.498Z,1.38
2022-08-11T10:17:33.194Z,1.20
2022-08-11T10:20:05.888Z,1.30
2022-08-11T10:22:53.251Z,1.23
2022-08-11T10:25:40.232Z,1.30
2022-08-11T10:28:28.380Z,1.00
2022-08-11T10:31:18.372Z,1.20
2022-08-11T10:34:04.172Z,1.25
2022-08-11T10:36:34.762Z,1.10
2022-08-11T10:39:05.159Z,1.10
2022-08-11T10:42:03.345Z,1.33
2022-08-11T10:44:40.379Z,1.13
2022-08-11T10:47:30.894Z,1.25
2022-08-11T10:50:17.490Z,1.20
2022-08-11T10:53:06.447Z,1.15
2022-08-11T10:55:52.947Z,1.30
2022-08-11T10:58:39.909Z,1.30
2022-08-11T11:01:08.828Z,1.40
2022-08-11T11:03:40.482Z,1.05
2022-08-11T11:06:28.219Z,1.00
2022-08-11T11:09:05.472Z,1.27
2022-08-11T11:11:56.285Z,1.13
2022-08-11T11:14:49.920Z,0.90
2022-08-11T11:17:46.699Z,1.02
2022-08-11T11:20:36.504Z,1.02
2022-08-11T11:23:11.554Z,1.00
2022-08-11T11:26:28.029Z,1.10
2022-08-11T11:29:25.377Z,1.10
2022-08-11T11:32:10.580Z,1.00
2022-08-11T11:35:11.712Z,1.13
2022-08-11T11:38:03.902Z,0.95
2022-08-11T11:40:32.709Z,1.13
2022-08-11T11:43:02.366Z,1.02
2022-08-11T11:45:30.751Z,0.95
2022-08-11T11:48:00.827Z,0.95
2022-08-11T11:50:32.902Z,1.25
2022-08-11T11:53:05.525Z,1.20
2022-08-11T11:55:34.044Z,1.00
2022-08-11T11:58:22.110Z,1.20
2022-08-11T12:01:09.395Z,1.13
2022-08-11T12:03:38.706Z,0.82
2022-08-11T12:06:09.517Z,1.00
2022-08-11T12:08:39.068Z,1.00
2022-08-11T12:11:28.124Z,1.15
2022-08-11T12:13:59.244Z,1.05
2022-08-11T12:16:33.793Z,0.98
2022-08-11T12:19:07.369Z,1.08
2022-08-11T12:21:37.650Z,0.80
2022-08-11T12:24:29.288Z,1.00
2022-08-11T12:27:17.630Z,1.00
2022-08-11T12:29:52.882Z,1.13
2022-08-11T12:32:25.416Z,1.05
2022-08-11T12:34:53.931Z,1.02
2022-08-11T12:37:30.516Z,1.10
2022-08-11T12:40:43.782Z,1.10
2022-08-11T12:43:37.859Z,0.75
2022-08-11T12:46:10.242Z,1.00
2022-08-11T12:49:03.383Z,1.10
2022-08-11T12:52:11.977Z,1.13
2022-08-11T12:54:51.934Z,1.00
2022-08-11T12:57:45.402Z,0.90
2022-08-11T13:00:32.431Z,1.10
2022-08-11T13:03:19.223Z,0.93
2022-08-11T13:05:49.653Z,1.00
2022-08-11T13:08:18.922Z,0.75
2022-08-11T13:11:05.782Z,0.80
2022-08-11T13:13:53.509Z,1.00
2022-08-11T13:16:24.427Z,0.85
2022-08-11T13:18:53.764Z,0.90
2022-08-11T13:21:23.121Z,1.00
2022-08-11T13:23:59.520Z,0.82
2022-08-11T13:26:47.828Z,1.13
2022-08-11T13:29:24.349Z,0.90
2022-08-11T13:31:53.604Z,0.80
2022-08-11T13:34:24.148Z,1.10
2022-08-11T13:36:54.486Z,0.75
2022-08-11T13:39:27.340Z,0.90
2022-08-11T13:41:57.115Z,0.80
2022-08-11T13:44:29.016Z,0.93
2022-08-11T13:47:01.672Z,1.00
2022-08-11T13:49:30.971Z,0.80
2022-08-11T13:52:00.746Z,0.98
2022-08-11T13:54:31.658Z,0.75
2022-08-11T13:57:09.464Z,0.73
2022-08-11T14:00:12.241Z,1.00
2022-08-11T14:02:55.069Z,0.90
2022-08-11T14:05:28.541Z,1.10
2022-08-11T14:08:01.212Z,1.00
2022-08-11T14:10:33.149Z,0.82
2022-08-11T14:13:21.233Z,0.90
2022-08-11T14:15:52.658Z,0.90
2022-08-11T14:18:23.901Z,1.00
2022-08-11T14:21:12.978Z,1.20
2022-08-11T14:23:43.653Z,0.95
2022-08-11T14:26:31.867Z,1.00
2022-08-11T14:29:03.276Z,0.80
2022-08-11T14:31:37.217Z,0.98
2022-08-11T14:34:07.849Z,0.90
2022-08-11T14:36:38.011Z,0.90
2022-08-11T14:39:11.702Z,0.90
2022-08-11T14:42:10.276Z,1.00
2022-08-11T14:45:01.250Z,1.00
2022-08-11T14:47:32.827Z,0.82
2022-08-11T14:50:10.762Z,0.90
2022-08-11T14:52:45.169Z,1.05
2022-08-11T14:55:32.457Z,0.90
2022-08-11T14:58:02.038Z,1.00
2022-08-11T15:00:34.382Z,1.10
2022-08-11T15:03:13.895Z,0.73
2022-08-11T15:05:57.242Z,0.90
2022-08-11T15:08:42.683Z,1.00
2022-08-11T15:11:33.548Z,1.25
2022-08-11T15:14:03.602Z,0.80
2022-08-11T15:16:49.990Z,0.80
2022-08-11T15:19:22.172Z,0.93
2022-08-11T15:22:08.713Z,0.98
2022-08-11T15:24:37.839Z,0.70
2022-08-11T15:27:25.807Z,0.88
2022-08-11T15:30:17.548Z,0.80
2022-08-11T15:33:27.208Z,0.85
2022-08-11T15:36:15.652Z,0.80
2022-08-11T15:38:47.619Z,0.90
2022-08-11T15:41:36.641Z,0.75
2022-08-11T15:44:51.416Z,1.00
2022-08-11T15:47:16.416Z,0.90
2022-08-11T15:50:11.925Z,0.95
2022-08-11T15:52:47.495Z,1.90
2022-08-11T15:55:16.485Z,1.38
2022-08-11T15:58:03.193Z,1.08
2022-08-11T16:00:49.178Z,0.70
2022-08-11T16:04:06.543Z,0.98
2022-08-11T16:06:35.792Z,1.10
2022-08-11T16:09:18.257Z,1.10
2022-08-11T16:11:48.078Z,1.10
2022-08-11T16:14:35.340Z,1.20
2022-08-11T16:17:05.604Z,1.23
2022-08-11T16:19:36.750Z,0.80
2022-08-11T16:22:08.314Z,1.17
2022-08-11T16:27:03.321Z,1.20
2022-08-11T16:27:34.467Z,1.02
2022-08-11T16:30:05.381Z,1.10
2022-08-11T16:32:35.506Z,1.50
2022-08-11T16:35:25.244Z,1.17
2022-08-11T16:38:11.428Z,1.17
2022-08-11T16:40:41.775Z,1.50
2022-08-11T16:43:32.015Z,1.20
2022-08-11T16:46:19.689Z,1.17
2022-08-11T16:48:50.607Z,1.30
2022-08-11T16:51:21.038Z,1.05
2022-08-11T16:54:04.381Z,0.90
2022-08-11T16:56:38.817Z,1.27
2022-08-11T16:59:16.535Z,0.90
2022-08-11T17:01:49.212Z,1.08
2022-08-11T17:04:54.930Z,1.30
2022-08-11T17:07:43.298Z,0.90
2022-08-11T17:10:51.309Z,1.20
2022-08-11T17:13:38.017Z,1.20
2022-08-11T17:16:10.168Z,3.72
2022-08-11T17:18:45.501Z,7.15
2022-08-11T17:21:17.402Z,4.63
2022-08-11T17:23:48.230Z,4.63
2022-08-11T17:26:19.533Z,4.07
2022-08-11T17:28:53.016Z,0.90
2022-08-11T17:31:40.814Z,1.00
2022-08-11T17:34:27.499Z,1.10
2022-08-11T17:36:56.258Z,1.10
2022-08-11T17:39:29.553Z,1.00
2022-08-11T17:42:16.336Z,0.90
2022-08-11T17:45:04.645Z,0.90
2022-08-11T17:47:52.524Z,1.45
2022-08-11T17:50:21.249Z,1.30
2022-08-11T17:53:10.216Z,1.20
2022-08-11T17:55:58.465Z,1.05
2022-08-11T17:58:47.394Z,1.17
2022-08-11T18:01:18.384Z,1.00
2022-08-11T18:03:56.291Z,1.13
2022-08-11T18:06:34.252Z,1.30
2022-08-11T18:09:22.758Z,1.00
2022-08-11T18:12:12.192Z,1.30
2022-08-11T18:14:59.311Z,0.93
2022-08-11T18:17:46.070Z,1.23
2022-08-11T18:20:31.658Z,1.10
2022-08-11T18:23:17.852Z,1.02
2022-08-11T18:26:07.310Z,1.10
2022-08-11T18:28:59.880Z,1.10
2022-08-11T18:31:46.220Z,0.88
2022-08-11T18:34:36.210Z,0.95
2022-08-11T18:37:28.600Z,1.20
2022-08-11T18:40:19.209Z,1.20
2022-08-11T18:43:06.536Z,1.30
2022-08-11T18:46:06.401Z,1.17
2022-08-11T18:48:55.175Z,1.20
2022-08-11T18:51:44.251Z,1.10
2022-08-11T18:54:31.137Z,1.20
2022-08-11T18:57:22.414Z,1.15
2022-08-11T19:00:11.961Z,1.45
2022-08-11T19:02:59.942Z,1.40
2022-08-11T19:06:35.808Z,0.82
2022-08-11T19:09:01.085Z,0.95
2022-08-11T19:11:49.705Z,1.20
2022-08-11T19:14:38.049Z,1.20
2022-08-11T19:17:44.079Z,1.30
2022-08-11T19:20:35.326Z,1.10
2022-08-11T19:23:22.306Z,1.30
2022-08-11T19:26:10.178Z,1.38
2022-08-11T19:28:58.198Z,1.20
2022-08-11T19:31:45.673Z,1.05
2022-08-11T19:34:33.774Z,1.20
2022-08-11T19:37:24.410Z,1.40
2022-08-11T19:40:13.343Z,1.20
2022-08-11T19:43:02.713Z,1.30
2022-08-11T19:45:52.540Z,1.20
2022-08-11T19:48:40.218Z,1.23
2022-08-11T19:51:27.268Z,1.60
2022-08-11T19:54:13.912Z,1.30
2022-08-11T19:57:00.936Z,1.25
2022-08-11T19:59:49.304Z,1.58
2022-08-11T20:02:35.085Z,1.60
2022-08-11T20:05:21.238Z,1.30
2022-08-11T20:08:08.221Z,1.10
2022-08-11T20:10:55.964Z,1.35
2022-08-11T20:13:43.433Z,0.90
2022-08-11T20:16:32.776Z,1.20
2022-08-11T20:19:19.977Z,1.10
2022-08-11T20:22:13.198Z,1.30
2022-08-11T20:25:00.957Z,1.15
2022-08-11T20:27:47.280Z,1.20
2022-08-11T20:30:33.280Z,1.50
2022-08-11T20:33:21.320Z,1.30
2022-08-11T20:36:08.474Z,1.35
2022-08-11T20:38:55.532Z,1.52
2022-08-11T20:41:58.826Z,1.20
2022-08-11T20:44:47.666Z,1.10
2022-08-11T20:47:56.546Z,1.35
2022-08-11T20:50:46.283Z,1.25
2022-08-11T20:53:38.985Z,1.02
2022-08-11T20:59:43.683Z,1.40
2022-08-11T21:02:41.094Z,1.33
2022-08-11T21:06:08.934Z,1.77
2022-08-11T21:08:38.836Z,1.40
2022-08-11T21:11:28.651Z,1.40
2022-08-11T21:14:16.357Z,1.30
2022-08-11T21:17:18.701Z,1.42
2022-08-11T21:20:20.645Z,1.60
2022-08-11T21:23:19.815Z,1.48
2022-08-11T21:26:17.946Z,1.30
2022-08-11T21:29:09.398Z,1.30
2022-08-11T21:31:58.098Z,1.55
2022-08-11T21:34:44.814Z,1.50
2022-08-11T21:37:31.878Z,1.23
2022-08-11T21:40:20.908Z,1.35
2022-08-11T21:43:10.924Z,1.40
2022-08-11T21:45:59.592Z,1.42
2022-08-11T21:48:47.683Z,1.23
2022-08-11T21:51:33.122Z,1.42
2022-08-11T21:54:21.033Z,1.52
2022-08-11T21:57:10.117Z,1.33
2022-08-11T22:00:04.706Z,1.70
2022-08-11T22:02:53.222Z,1.52
2022-08-11T22:05:39.861Z,1.30
2022-08-11T22:08:29.320Z,1.50
2022-08-11T22:11:16.691Z,1.58
2022-08-11T22:14:18.181Z,1.77
2022-08-11T22:17:05.268Z,1.30
2022-08-11T22:19:53.231Z,1.50
2022-08-11T22:22:52.518Z,1.40
2022-08-11T22:25:44.248Z,1.10
2022-08-11T22:28:37.570Z,1.55
2022-08-11T22:31:24.347Z,1.63
2022-08-11T22:34:11.158Z,1.55
2022-08-11T22:36:57.678Z,1.42
2022-08-11T22:39:44.650Z,1.50
2022-08-11T22:42:45.987Z,1.25
2022-08-11T22:45:32.151Z,1.38
2022-08-11T22:48:20.441Z,1.30
2022-08-11T22:51:08.095Z,1.45
2022-08-11T22:53:55.242Z,1.65
2022-08-11T22:56:46.819Z,1.58
2022-08-11T22:59:32.989Z,1.63
2022-08-11T23:02:20.184Z,1.50
2022-08-11T23:05:09.431Z,1.50
2022-08-11T23:07:57.590Z,1.83
2022-08-11T23:10:44.484Z,1.60
2022-08-11T23:13:30.913Z,1.30
2022-08-11T23:16:19.989Z,1.85
2022-08-11T23:19:07.126Z,1.60
2022-08-11T23:21:53.738Z,1.58
2022-08-11T23:24:43.490Z,1.45
2022-08-11T23:27:31.659Z,1.73
2022-08-11T23:30:20.845Z,1.40
2022-08-11T23:33:09.348Z,2.05
2022-08-11T23:36:02.266Z,1.45
2022-08-11T23:38:51.588Z,1.50
2022-08-11T23:41:39.515Z,1.27
2022-08-11T23:44:27.104Z,1.80
2022-08-11T23:47:15.282Z,1.60
2022-08-11T23:50:01.277Z,1.75
2022-08-11T23:52:48.587Z,1.80
2022-08-11T23:55:38.130Z,1.75
2022-08-11T23:58:24.989Z,1.70
